This is the latest recevied weather packets stored in our database for station/object N4QD-13. If no packets are shown the sender has not sent any weather packets the latest 10 day(s).
| Time | Temp. | Humidity | Pressure | Rain* | Wind** | Luminosity | Snow |
|---|---|---|---|---|---|---|---|
| 1777682643 | 15° C | 56% | 1011.2 hPa | 0 mm | - | 0 W/m² | - |
| 1777682341 | 15° C | 56% | 1011.3 hPa | 0 mm | - | 0 W/m² | - |
| 1777682038 | 15° C | 56% | 1011.2 hPa | 0 mm | - | 0 W/m² | - |
| 1777681734 | 15° C | 57% | 1010.9 hPa | 0 mm | - | 0 W/m² | - |
| 1777681432 | 15.56° C | 55% | 1010.9 hPa | 0 mm | - | 0 W/m² | - |
| 1777681129 | 15.56° C | 54% | 1010.7 hPa | 0 mm | - | 0 W/m² | - |
| 1777680826 | 15.56° C | 54% | 1010.6 hPa | 0 mm | - | 0 W/m² | - |
| 1777680524 | 16.11° C | 53% | 1010.6 hPa | 0 mm | - | 1 W/m² | - |
| 1777680222 | 16.11° C | 53% | 1010.7 hPa | 0 mm | - | 3 W/m² | - |
| 1777679918 | 16.67° C | 52% | 1010.7 hPa | 0 mm | - | 5 W/m² | - |
| 1777679613 | 16.67° C | 52% | 1010.7 hPa | 0 mm | - | 8 W/m² | - |
| 1777679309 | 16.67° C | 51% | 1010.8 hPa | 0 mm | - | 12 W/m² | - |
| 1777679006 | 16.67° C | 51% | 1010.6 hPa | 0 mm | - | 13 W/m² | - |
| 1777678705 | 16.67° C | 51% | 1010.8 hPa | 0 mm | - | 19 W/m² | - |
| 1777678401 | 16.67° C | 51% | 1010.7 hPa | 0 mm | - | 20 W/m² | - |
| 1777678097 | 16.67° C | 50% | 1010.6 hPa | 0 mm | - | 21 W/m² | - |
| 1777677795 | 16.67° C | 50% | 1010.4 hPa | 0 mm | - | 24 W/m² | - |
| 1777677492 | 17.22° C | 49% | 1010.4 hPa | 0 mm | - | 29 W/m² | - |
| 1777677190 | 17.22° C | 48% | 1010.3 hPa | 0 mm | - | 35 W/m² | - |
| 1777676888 | 17.78° C | 48% | 1010.3 hPa | 0 mm | - | 51 W/m² | - |
| 1777676587 | 17.78° C | 48% | 1010.4 hPa | 0 mm | - | 56 W/m² | - |
| 1777676283 | 17.78° C | 48% | 1010.3 hPa | 0 mm | - | 55 W/m² | - |
| 1777675981 | 18.33° C | 47% | 1010.3 hPa | 0 mm | - | 70 W/m² | - |
| 1777675677 | 17.78° C | 47% | 1010.2 hPa | 0 mm | - | 55 W/m² | - |
| 1777675375 | 18.33° C | 46% | 1010.2 hPa | 0 mm | - | 66 W/m² | - |
* Rain latest hour (hover to see other rain measurements)
** Current wind speed in m/s (hover to see current wind gust speed)